Avilla, MO (64833)

11:55 AM CST on January 27, 2015 (GMT -0600)
RAWS MT VERNON MO US | Change Station
CLOSE
Current Station
Personal Weather Station
Location: La Russell, MO
Elevation: 1266 ft
Nearby Weather Stations

Elev 1266 ft 37.19 °N, 93.93 °W | Updated 55 minutes ago

Clear
Clear
52 °F
Feels Like 52 °F
N
2
Wind Variable Wind from ENE
Gusts 9.0 mph

Today
High -- | Low -- °F
--% Chance of Precip.
Yesterday
High -- | Low -- °F
Precip. -- in
7:23 AM 5:35 PM
First Quarter, 56% visible
Pressure 30.19 in
Visibility 10.0 miles
Clouds Clear
Dew Point 35 °F
Humidity 52%
Rainfall -999.00 in
Snow Depth Not available.
UV 3 out of 12
Pollen 2.10 out of 12
Air Quality Not available.
Flu Activity Not available.
METAR KJLN 271653Z 06005KT 10SM CLR 10/01 A3019 RMK AO2 SLP222 T01000011

More Conditions Fewer Conditions

Pressure 30.19 in
Visibility 10.0 miles
Clouds Clear
Dew Point 35 °F
Humidity 52%
Rainfall -999.00 in
Snow Depth Not available.
UV 3 out of 12
Pollen 2.10 out of 12
Air Quality Not available.
Flu Activity Not available.
METAR KJLN 271653Z 06005KT 10SM CLR 10/01 A3019 RMK AO2 SLP222 T01000011

More Conditions Fewer Conditions

10-Day Weather Forecast

Almanac

Astronomy

Jan. 27, 2015 Rise Set
Actual Time
Civil Twilight
Nautical Twilight
Astronomical Twilight
Moon
Length of Visible Light
Length of Day
Tomorrow will be .
, % of the Moon is Illuminated

Today's Extremes

State Highs State Lows

Community

WunderPhotos

Upload Photos

1,790,741 photos uploaded!

WunderBlogs® & News

Nearby

Air Quality

  Air Quality AQ Index Pollutant
Not available.

Snow Depth

Station Depth Elevation

Earthquake Activity

City Distance Mag. Time & Date
Minimum magnitude displayed is 2.5.

Coastal Water Temperatures

Place Temperature

Nearby Weather Stations